sensor_id;sensor_type;location;lat;lon;timestamp;P1;durP1;ratioP1;P2;durP2;ratioP2
21444;SDS011;10883;51.946;20.140;2023-05-13T05:42:57;7.32;;;4.18;;
21444;SDS011;10883;51.946;20.140;2023-05-13T06:26:11;6.30;;;3.10;;
21444;SDS011;10883;51.946;20.140;2023-05-13T06:28:38;5.35;;;2.72;;
21444;SDS011;10883;51.946;20.140;2023-05-13T06:31:04;5.50;;;2.67;;
21444;SDS011;10883;51.946;20.140;2023-05-13T06:33:30;5.72;;;2.67;;
21444;SDS011;10883;51.946;20.140;2023-05-13T06:35:55;6.32;;;3.15;;
21444;SDS011;10883;51.946;20.140;2023-05-13T06:38:21;3.72;;;3.05;;
21444;SDS011;10883;51.946;20.140;2023-05-13T06:40:48;3.97;;;2.40;;
21444;SDS011;10883;51.946;20.140;2023-05-13T06:43:14;4.45;;;2.20;;
21444;SDS011;10883;51.946;20.140;2023-05-13T06:45:40;3.97;;;2.25;;
21444;SDS011;10883;51.946;20.140;2023-05-13T06:48:06;4.05;;;2.08;;
21444;SDS011;10883;51.946;20.140;2023-05-13T06:50:32;3.63;;;2.25;;
21444;SDS011;10883;51.946;20.140;2023-05-13T06:52:58;4.03;;;2.03;;
21444;SDS011;10883;51.946;20.140;2023-05-13T06:55:24;4.25;;;2.63;;
21444;SDS011;10883;51.946;20.140;2023-05-13T06:57:50;5.00;;;2.35;;
21444;SDS011;10883;51.946;20.140;2023-05-13T07:00:17;5.50;;;2.35;;
21444;SDS011;10883;51.946;20.140;2023-05-13T07:02:43;4.60;;;2.38;;
21444;SDS011;10883;51.946;20.140;2023-05-13T07:05:09;5.15;;;2.50;;
21444;SDS011;10883;51.946;20.140;2023-05-13T07:07:36;3.75;;;2.50;;
21444;SDS011;10883;51.946;20.140;2023-05-13T07:10:02;5.03;;;2.53;;
21444;SDS011;10883;51.946;20.140;2023-05-13T07:12:28;2.50;;;2.15;;
21444;SDS011;10883;51.946;20.140;2023-05-13T07:14:53;7.30;;;2.50;;
21444;SDS011;10883;51.946;20.140;2023-05-13T07:17:19;6.88;;;2.10;;
21444;SDS011;10883;51.946;20.140;2023-05-13T07:19:45;6.65;;;2.33;;
21444;SDS011;10883;51.946;20.140;2023-05-13T07:22:11;3.20;;;2.08;;
21444;SDS011;10883;51.946;20.140;2023-05-13T07:24:37;4.32;;;2.38;;
21444;SDS011;10883;51.946;20.140;2023-05-13T07:27:03;3.03;;;2.13;;
21444;SDS011;10883;51.946;20.140;2023-05-13T07:29:32;2.92;;;2.13;;
21444;SDS011;10883;51.946;20.140;2023-05-13T07:32:01;4.88;;;2.30;;
21444;SDS011;10883;51.946;20.140;2023-05-13T07:34:28;4.63;;;2.13;;
21444;SDS011;10883;51.946;20.140;2023-05-13T07:36:54;3.75;;;2.13;;
21444;SDS011;10883;51.946;20.140;2023-05-13T07:39:20;6.68;;;1.70;;
21444;SDS011;10883;51.946;20.140;2023-05-13T07:41:45;5.95;;;2.70;;
21444;SDS011;10883;51.946;20.140;2023-05-13T07:44:11;4.47;;;1.83;;
21444;SDS011;10883;51.946;20.140;2023-05-13T07:46:37;3.72;;;1.92;;
21444;SDS011;10883;51.946;20.140;2023-05-13T07:49:03;6.45;;;1.85;;
21444;SDS011;10883;51.946;20.140;2023-05-13T07:51:31;3.05;;;1.92;;
21444;SDS011;10883;51.946;20.140;2023-05-13T07:53:56;3.28;;;1.70;;
21444;SDS011;10883;51.946;20.140;2023-05-13T07:56:22;5.90;;;2.58;;
21444;SDS011;10883;51.946;20.140;2023-05-13T07:58:48;4.70;;;2.25;;
21444;SDS011;10883;51.946;20.140;2023-05-13T08:01:14;3.80;;;1.92;;
21444;SDS011;10883;51.946;20.140;2023-05-13T08:03:40;3.70;;;2.03;;
21444;SDS011;10883;51.946;20.140;2023-05-13T08:06:06;6.07;;;2.13;;
21444;SDS011;10883;51.946;20.140;2023-05-13T08:08:32;5.78;;;2.17;;
21444;SDS011;10883;51.946;20.140;2023-05-13T08:10:58;4.63;;;1.73;;
21444;SDS011;10883;51.946;20.140;2023-05-13T08:13:23;3.35;;;2.20;;
21444;SDS011;10883;51.946;20.140;2023-05-13T08:15:49;3.42;;;2.25;;
21444;SDS011;10883;51.946;20.140;2023-05-13T08:18:16;3.70;;;1.90;;
21444;SDS011;10883;51.946;20.140;2023-05-13T08:20:42;3.30;;;2.13;;
21444;SDS011;10883;51.946;20.140;2023-05-13T08:23:08;2.75;;;2.33;;
21444;SDS011;10883;51.946;20.140;2023-05-13T08:25:33;3.30;;;1.50;;
21444;SDS011;10883;51.946;20.140;2023-05-13T08:28:00;4.57;;;2.10;;
21444;SDS011;10883;51.946;20.140;2023-05-13T08:30:27;3.42;;;2.25;;
21444;SDS011;10883;51.946;20.140;2023-05-13T08:32:53;3.90;;;1.85;;
21444;SDS011;10883;51.946;20.140;2023-05-13T08:35:19;3.00;;;1.90;;
21444;SDS011;10883;51.946;20.140;2023-05-13T08:37:45;4.30;;;2.00;;
21444;SDS011;10883;51.946;20.140;2023-05-13T08:40:11;3.42;;;2.35;;
21444;SDS011;10883;51.946;20.140;2023-05-13T08:42:37;4.10;;;2.25;;
21444;SDS011;10883;51.946;20.140;2023-05-13T08:45:06;3.10;;;2.30;;
21444;SDS011;10883;51.946;20.140;2023-05-13T08:47:48;5.35;;;2.70;;
21444;SDS011;10883;51.946;20.140;2023-05-13T08:50:17;4.28;;;2.17;;
21444;SDS011;10883;51.946;20.140;2023-05-13T08:52:44;5.15;;;2.67;;
21444;SDS011;10883;51.946;20.140;2023-05-13T08:55:10;4.82;;;2.28;;
21444;SDS011;10883;51.946;20.140;2023-05-13T08:57:36;6.10;;;2.47;;
21444;SDS011;10883;51.946;20.140;2023-05-13T09:00:02;8.55;;;2.22;;
21444;SDS011;10883;51.946;20.140;2023-05-13T09:02:29;3.03;;;1.80;;
21444;SDS011;10883;51.946;20.140;2023-05-13T09:04:55;4.72;;;2.40;;
21444;SDS011;10883;51.946;20.140;2023-05-13T09:07:29;3.60;;;2.78;;
21444;SDS011;10883;51.946;20.140;2023-05-13T09:09:55;3.95;;;2.40;;
21444;SDS011;10883;51.946;20.140;2023-05-13T09:15:09;2.47;;;2.28;;
21444;SDS011;10883;51.946;20.140;2023-05-13T09:17:40;6.82;;;3.90;;
21444;SDS011;10883;51.946;20.140;2023-05-13T09:20:08;8.80;;;2.65;;
21444;SDS011;10883;51.946;20.140;2023-05-13T09:22:39;3.00;;;2.05;;
21444;SDS011;10883;51.946;20.140;2023-05-13T09:25:15;5.53;;;2.22;;
21444;SDS011;10883;51.946;20.140;2023-05-13T09:27:44;6.95;;;2.33;;
21444;SDS011;10883;51.946;20.140;2023-05-13T09:30:15;3.90;;;2.30;;
21444;SDS011;10883;51.946;20.140;2023-05-13T09:32:41;3.65;;;2.42;;
21444;SDS011;10883;51.946;20.140;2023-05-13T09:35:13;6.72;;;2.60;;
21444;SDS011;10883;51.946;20.140;2023-05-13T09:37:43;4.10;;;2.70;;
21444;SDS011;10883;51.946;20.140;2023-05-13T09:40:14;4.80;;;2.35;;
21444;SDS011;10883;51.946;20.140;2023-05-13T09:42:41;23.33;;;8.88;;
21444;SDS011;10883;51.946;20.140;2023-05-13T09:45:08;18.60;;;8.98;;
21444;SDS011;10883;51.946;20.140;2023-05-13T09:47:36;11.23;;;3.03;;
21444;SDS011;10883;51.946;20.140;2023-05-13T09:50:02;4.03;;;2.78;;
21444;SDS011;10883;51.946;20.140;2023-05-13T09:52:29;3.15;;;2.40;;
21444;SDS011;10883;51.946;20.140;2023-05-13T09:54:59;4.70;;;2.67;;
21444;SDS011;10883;51.946;20.140;2023-05-13T09:57:28;4.47;;;2.85;;
21444;SDS011;10883;51.946;20.140;2023-05-13T09:59:58;15.40;;;7.15;;
21444;SDS011;10883;51.946;20.140;2023-05-13T10:02:30;5.15;;;3.75;;
21444;SDS011;10883;51.946;20.140;2023-05-13T10:04:56;7.68;;;2.20;;
21444;SDS011;10883;51.946;20.140;2023-05-13T10:07:23;5.28;;;2.38;;
21444;SDS011;10883;51.946;20.140;2023-05-13T10:09:53;8.70;;;2.55;;
21444;SDS011;10883;51.946;20.140;2023-05-13T10:12:26;2.60;;;2.35;;
21444;SDS011;10883;51.946;20.140;2023-05-13T10:14:53;5.07;;;2.78;;
21444;SDS011;10883;51.946;20.140;2023-05-13T10:17:20;4.82;;;2.35;;
21444;SDS011;10883;51.946;20.140;2023-05-13T10:19:50;11.30;;;5.28;;
21444;SDS011;10883;51.946;20.140;2023-05-13T10:22:27;4.93;;;2.45;;
21444;SDS011;10883;51.946;20.140;2023-05-13T10:24:58;5.10;;;2.53;;
21444;SDS011;10883;51.946;20.140;2023-05-13T10:27:26;7.13;;;2.70;;
21444;SDS011;10883;51.946;20.140;2023-05-13T10:29:57;4.88;;;2.28;;
21444;SDS011;10883;51.946;20.140;2023-05-13T10:32:25;14.50;;;4.57;;
21444;SDS011;10883;51.946;20.140;2023-05-13T10:35:04;9.40;;;2.70;;
21444;SDS011;10883;51.946;20.140;2023-05-13T10:42:52;3.42;;;2.30;;
21444;SDS011;10883;51.946;20.140;2023-05-13T10:45:32;2.78;;;2.03;;
21444;SDS011;10883;51.946;20.140;2023-05-13T10:48:04;2.60;;;2.15;;
21444;SDS011;10883;51.946;20.140;2023-05-13T10:50:36;3.90;;;2.58;;
21444;SDS011;10883;51.946;20.140;2023-05-13T10:53:08;6.30;;;3.58;;
21444;SDS011;10883;51.946;20.140;2023-05-13T10:55:43;6.18;;;3.28;;
21444;SDS011;10883;51.946;20.140;2023-05-13T10:58:12;3.65;;;2.25;;
21444;SDS011;10883;51.946;20.140;2023-05-13T11:00:41;11.75;;;4.30;;
21444;SDS011;10883;51.946;20.140;2023-05-13T11:03:13;4.57;;;2.78;;
21444;SDS011;10883;51.946;20.140;2023-05-13T11:05:59;4.05;;;2.42;;
21444;SDS011;10883;51.946;20.140;2023-05-13T11:08:45;4.13;;;2.38;;
21444;SDS011;10883;51.946;20.140;2023-05-13T11:11:22;5.97;;;2.88;;
21444;SDS011;10883;51.946;20.140;2023-05-13T11:14:05;6.50;;;2.90;;
21444;SDS011;10883;51.946;20.140;2023-05-13T11:19:25;2.65;;;2.38;;
21444;SDS011;10883;51.946;20.140;2023-05-13T11:21:53;6.40;;;3.00;;
21444;SDS011;10883;51.946;20.140;2023-05-13T11:24:21;5.45;;;3.10;;
21444;SDS011;10883;51.946;20.140;2023-05-13T11:26:51;4.40;;;2.85;;
21444;SDS011;10883;51.946;20.140;2023-05-13T11:31:57;6.05;;;2.55;;
21444;SDS011;10883;51.946;20.140;2023-05-13T11:34:24;5.25;;;2.40;;
21444;SDS011;10883;51.946;20.140;2023-05-13T11:36:54;4.38;;;3.35;;
21444;SDS011;10883;51.946;20.140;2023-05-13T11:39:41;10.65;;;5.25;;
21444;SDS011;10883;51.946;20.140;2023-05-13T11:42:07;2.55;;;2.35;;
21444;SDS011;10883;51.946;20.140;2023-05-13T11:44:34;3.65;;;2.58;;
21444;SDS011;10883;51.946;20.140;2023-05-13T11:47:01;5.57;;;3.03;;
21444;SDS011;10883;51.946;20.140;2023-05-13T11:51:59;3.75;;;2.30;;
21444;SDS011;10883;51.946;20.140;2023-05-13T11:54:29;5.40;;;2.63;;
21444;SDS011;10883;51.946;20.140;2023-05-13T11:56:55;5.15;;;2.72;;
21444;SDS011;10883;51.946;20.140;2023-05-13T11:59:21;5.10;;;2.20;;
21444;SDS011;10883;51.946;20.140;2023-05-13T12:02:00;3.45;;;2.47;;
21444;SDS011;10883;51.946;20.140;2023-05-13T12:04:27;3.38;;;2.20;;
21444;SDS011;10883;51.946;20.140;2023-05-13T12:06:54;4.40;;;2.40;;
21444;SDS011;10883;51.946;20.140;2023-05-13T12:09:23;8.75;;;4.25;;
21444;SDS011;10883;51.946;20.140;2023-05-13T12:11:51;3.08;;;2.20;;
21444;SDS011;10883;51.946;20.140;2023-05-13T12:14:18;3.97;;;2.58;;
21444;SDS011;10883;51.946;20.140;2023-05-13T12:16:44;5.63;;;2.60;;
21444;SDS011;10883;51.946;20.140;2023-05-13T12:19:11;7.43;;;2.50;;
21444;SDS011;10883;51.946;20.140;2023-05-13T12:21:37;6.57;;;2.58;;
21444;SDS011;10883;51.946;20.140;2023-05-13T12:24:19;4.57;;;2.20;;
21444;SDS011;10883;51.946;20.140;2023-05-13T12:26:45;8.13;;;2.83;;
21444;SDS011;10883;51.946;20.140;2023-05-13T12:29:12;4.53;;;3.10;;
21444;SDS011;10883;51.946;20.140;2023-05-13T12:31:40;6.45;;;2.80;;
21444;SDS011;10883;51.946;20.140;2023-05-13T12:34:06;5.25;;;2.35;;
21444;SDS011;10883;51.946;20.140;2023-05-13T12:36:35;4.95;;;2.70;;
21444;SDS011;10883;51.946;20.140;2023-05-13T12:39:03;5.25;;;2.55;;
21444;SDS011;10883;51.946;20.140;2023-05-13T12:41:33;7.50;;;2.53;;
21444;SDS011;10883;51.946;20.140;2023-05-13T12:44:13;5.25;;;2.67;;
21444;SDS011;10883;51.946;20.140;2023-05-13T12:46:49;5.30;;;2.75;;
21444;SDS011;10883;51.946;20.140;2023-05-13T12:49:15;2.25;;;1.92;;
21444;SDS011;10883;51.946;20.140;2023-05-13T12:51:41;6.28;;;2.30;;
21444;SDS011;10883;51.946;20.140;2023-05-13T12:54:08;3.47;;;2.50;;
21444;SDS011;10883;51.946;20.140;2023-05-13T12:56:36;6.28;;;1.95;;
21444;SDS011;10883;51.946;20.140;2023-05-13T12:59:04;7.45;;;1.98;;
21444;SDS011;10883;51.946;20.140;2023-05-13T13:01:29;5.35;;;2.28;;
21444;SDS011;10883;51.946;20.140;2023-05-13T13:03:55;2.75;;;2.30;;
21444;SDS011;10883;51.946;20.140;2023-05-13T13:06:21;3.47;;;2.20;;
21444;SDS011;10883;51.946;20.140;2023-05-13T13:08:47;7.13;;;2.50;;
21444;SDS011;10883;51.946;20.140;2023-05-13T13:11:13;5.10;;;2.67;;
21444;SDS011;10883;51.946;20.140;2023-05-13T13:13:42;4.32;;;2.20;;
21444;SDS011;10883;51.946;20.140;2023-05-13T13:16:13;4.93;;;2.95;;
21444;SDS011;10883;51.946;20.140;2023-05-13T13:18:40;6.10;;;2.58;;
21444;SDS011;10883;51.946;20.140;2023-05-13T13:21:06;4.05;;;2.45;;
21444;SDS011;10883;51.946;20.140;2023-05-13T13:23:32;5.68;;;2.63;;
21444;SDS011;10883;51.946;20.140;2023-05-13T13:25:58;4.70;;;2.28;;
21444;SDS011;10883;51.946;20.140;2023-05-13T13:28:25;11.77;;;3.08;;
21444;SDS011;10883;51.946;20.140;2023-05-13T13:30:51;2.55;;;2.17;;
21444;SDS011;10883;51.946;20.140;2023-05-13T13:33:17;3.20;;;2.28;;
21444;SDS011;10883;51.946;20.140;2023-05-13T13:35:43;3.17;;;2.10;;
21444;SDS011;10883;51.946;20.140;2023-05-13T13:38:11;2.75;;;2.35;;
21444;SDS011;10883;51.946;20.140;2023-05-13T13:40:37;2.53;;;2.33;;
21444;SDS011;10883;51.946;20.140;2023-05-13T13:43:04;4.20;;;2.40;;
21444;SDS011;10883;51.946;20.140;2023-05-13T13:45:31;5.82;;;2.95;;
21444;SDS011;10883;51.946;20.140;2023-05-13T13:47:57;6.97;;;2.67;;
21444;SDS011;10883;51.946;20.140;2023-05-13T13:50:23;3.50;;;2.47;;
21444;SDS011;10883;51.946;20.140;2023-05-13T13:52:49;6.18;;;3.15;;
21444;SDS011;10883;51.946;20.140;2023-05-13T13:55:19;3.45;;;2.35;;
21444;SDS011;10883;51.946;20.140;2023-05-13T13:57:45;5.63;;;2.03;;
21444;SDS011;10883;51.946;20.140;2023-05-13T14:00:12;11.00;;;3.13;;
21444;SDS011;10883;51.946;20.140;2023-05-13T14:02:39;3.13;;;2.63;;
21444;SDS011;10883;51.946;20.140;2023-05-13T14:05:05;4.95;;;2.70;;
21444;SDS011;10883;51.946;20.140;2023-05-13T14:07:31;5.28;;;2.40;;
21444;SDS011;10883;51.946;20.140;2023-05-13T14:09:57;3.55;;;2.38;;
21444;SDS011;10883;51.946;20.140;2023-05-13T14:12:22;4.35;;;2.20;;
21444;SDS011;10883;51.946;20.140;2023-05-13T14:14:48;5.97;;;3.33;;
21444;SDS011;10883;51.946;20.140;2023-05-13T14:17:14;6.05;;;3.50;;
21444;SDS011;10883;51.946;20.140;2023-05-13T14:19:40;3.58;;;2.17;;
21444;SDS011;10883;51.946;20.140;2023-05-13T14:22:06;5.97;;;2.65;;
21444;SDS011;10883;51.946;20.140;2023-05-13T14:24:32;8.57;;;2.53;;
21444;SDS011;10883;51.946;20.140;2023-05-13T14:26:57;4.70;;;2.45;;
21444;SDS011;10883;51.946;20.140;2023-05-13T14:29:26;3.80;;;2.28;;
21444;SDS011;10883;51.946;20.140;2023-05-13T14:31:52;5.07;;;2.28;;
21444;SDS011;10883;51.946;20.140;2023-05-13T14:34:18;8.05;;;2.50;;
21444;SDS011;10883;51.946;20.140;2023-05-13T14:36:44;3.05;;;2.47;;
21444;SDS011;10883;51.946;20.140;2023-05-13T14:39:10;5.65;;;3.45;;
21444;SDS011;10883;51.946;20.140;2023-05-13T14:41:36;6.53;;;3.55;;
21444;SDS011;10883;51.946;20.140;2023-05-13T14:44:01;7.68;;;2.55;;
21444;SDS011;10883;51.946;20.140;2023-05-13T14:46:27;5.63;;;2.78;;
21444;SDS011;10883;51.946;20.140;2023-05-13T14:48:53;6.05;;;2.10;;
21444;SDS011;10883;51.946;20.140;2023-05-13T14:51:19;3.67;;;3.00;;
21444;SDS011;10883;51.946;20.140;2023-05-13T14:53:45;5.53;;;2.53;;
21444;SDS011;10883;51.946;20.140;2023-05-13T14:56:11;5.50;;;2.70;;
21444;SDS011;10883;51.946;20.140;2023-05-13T14:58:36;5.10;;;2.92;;
21444;SDS011;10883;51.946;20.140;2023-05-13T15:01:02;3.70;;;2.38;;
21444;SDS011;10883;51.946;20.140;2023-05-13T15:03:28;3.92;;;2.40;;
21444;SDS011;10883;51.946;20.140;2023-05-13T15:05:54;10.10;;;3.58;;
21444;SDS011;10883;51.946;20.140;2023-05-13T15:08:21;7.03;;;3.28;;
21444;SDS011;10883;51.946;20.140;2023-05-13T15:10:47;2.40;;;2.10;;
21444;SDS011;10883;51.946;20.140;2023-05-13T15:13:12;5.50;;;3.10;;
21444;SDS011;10883;51.946;20.140;2023-05-13T15:15:38;2.83;;;2.15;;
21444;SDS011;10883;51.946;20.140;2023-05-13T15:18:04;4.03;;;2.33;;
21444;SDS011;10883;51.946;20.140;2023-05-13T15:20:30;8.18;;;2.70;;
21444;SDS011;10883;51.946;20.140;2023-05-13T15:22:56;4.50;;;1.92;;
21444;SDS011;10883;51.946;20.140;2023-05-13T15:25:22;3.10;;;2.03;;
21444;SDS011;10883;51.946;20.140;2023-05-13T15:27:48;3.40;;;2.40;;
21444;SDS011;10883;51.946;20.140;2023-05-13T15:30:15;3.38;;;2.20;;
21444;SDS011;10883;51.946;20.140;2023-05-13T15:32:41;4.15;;;2.30;;
21444;SDS011;10883;51.946;20.140;2023-05-13T15:35:06;5.45;;;2.03;;
21444;SDS011;10883;51.946;20.140;2023-05-13T15:37:33;3.50;;;2.22;;
21444;SDS011;10883;51.946;20.140;2023-05-13T15:39:58;3.78;;;1.95;;
21444;SDS011;10883;51.946;20.140;2023-05-13T15:42:24;3.15;;;2.05;;
21444;SDS011;10883;51.946;20.140;2023-05-13T15:44:51;7.25;;;2.83;;
21444;SDS011;10883;51.946;20.140;2023-05-13T15:47:17;6.40;;;2.80;;
21444;SDS011;10883;51.946;20.140;2023-05-13T15:49:43;4.63;;;2.22;;
21444;SDS011;10883;51.946;20.140;2023-05-13T15:52:08;5.05;;;2.50;;
21444;SDS011;10883;51.946;20.140;2023-05-13T15:54:34;6.32;;;2.75;;
21444;SDS011;10883;51.946;20.140;2023-05-13T15:57:00;6.75;;;3.05;;
21444;SDS011;10883;51.946;20.140;2023-05-13T15:59:26;5.22;;;2.13;;
21444;SDS011;10883;51.946;20.140;2023-05-13T16:01:51;2.80;;;2.03;;
21444;SDS011;10883;51.946;20.140;2023-05-13T16:04:17;4.22;;;2.53;;
21444;SDS011;10883;51.946;20.140;2023-05-13T16:06:43;17.33;;;5.20;;
21444;SDS011;10883;51.946;20.140;2023-05-13T16:09:09;4.55;;;2.30;;
21444;SDS011;10883;51.946;20.140;2023-05-13T16:11:35;4.05;;;2.38;;
21444;SDS011;10883;51.946;20.140;2023-05-13T16:14:01;9.30;;;3.78;;
21444;SDS011;10883;51.946;20.140;2023-05-13T16:16:27;4.13;;;2.50;;
21444;SDS011;10883;51.946;20.140;2023-05-13T16:18:53;5.72;;;2.58;;
21444;SDS011;10883;51.946;20.140;2023-05-13T16:21:18;3.63;;;2.35;;
21444;SDS011;10883;51.946;20.140;2023-05-13T16:23:44;5.75;;;2.50;;
21444;SDS011;10883;51.946;20.140;2023-05-13T16:26:10;4.75;;;2.78;;
21444;SDS011;10883;51.946;20.140;2023-05-13T16:28:36;8.55;;;2.58;;
21444;SDS011;10883;51.946;20.140;2023-05-13T16:31:02;8.38;;;3.15;;
21444;SDS011;10883;51.946;20.140;2023-05-13T16:33:27;4.63;;;2.95;;
21444;SDS011;10883;51.946;20.140;2023-05-13T16:35:54;6.20;;;2.60;;
21444;SDS011;10883;51.946;20.140;2023-05-13T16:38:20;7.45;;;2.92;;
21444;SDS011;10883;51.946;20.140;2023-05-13T16:40:45;3.10;;;2.53;;
21444;SDS011;10883;51.946;20.140;2023-05-13T16:43:11;4.75;;;2.47;;
21444;SDS011;10883;51.946;20.140;2023-05-13T16:45:37;5.00;;;2.45;;
21444;SDS011;10883;51.946;20.140;2023-05-13T16:48:03;4.32;;;2.55;;
21444;SDS011;10883;51.946;20.140;2023-05-13T16:50:30;4.65;;;2.22;;
21444;SDS011;10883;51.946;20.140;2023-05-13T16:52:55;5.28;;;2.33;;
21444;SDS011;10883;51.946;20.140;2023-05-13T16:55:21;12.63;;;3.75;;
21444;SDS011;10883;51.946;20.140;2023-05-13T16:57:47;5.22;;;2.70;;
21444;SDS011;10883;51.946;20.140;2023-05-13T17:00:13;6.75;;;2.78;;
21444;SDS011;10883;51.946;20.140;2023-05-13T17:02:39;5.20;;;2.13;;
21444;SDS011;10883;51.946;20.140;2023-05-13T17:05:06;10.20;;;3.58;;
21444;SDS011;10883;51.946;20.140;2023-05-13T17:07:32;5.10;;;2.58;;
21444;SDS011;10883;51.946;20.140;2023-05-13T17:09:58;4.65;;;2.72;;
21444;SDS011;10883;51.946;20.140;2023-05-13T17:12:24;3.15;;;2.03;;
21444;SDS011;10883;51.946;20.140;2023-05-13T17:14:51;9.73;;;3.25;;
21444;SDS011;10883;51.946;20.140;2023-05-13T17:17:17;8.27;;;2.30;;
21444;SDS011;10883;51.946;20.140;2023-05-13T17:19:42;3.75;;;2.95;;
21444;SDS011;10883;51.946;20.140;2023-05-13T17:22:08;5.18;;;3.25;;
21444;SDS011;10883;51.946;20.140;2023-05-13T17:24:34;9.88;;;4.85;;
21444;SDS011;10883;51.946;20.140;2023-05-13T17:27:00;8.60;;;4.53;;
21444;SDS011;10883;51.946;20.140;2023-05-13T17:29:25;46.30;;;14.32;;
21444;SDS011;10883;51.946;20.140;2023-05-13T17:31:51;27.50;;;8.73;;
21444;SDS011;10883;51.946;20.140;2023-05-13T17:34:18;20.67;;;7.00;;
21444;SDS011;10883;51.946;20.140;2023-05-13T17:36:44;10.52;;;3.88;;
21444;SDS011;10883;51.946;20.140;2023-05-13T17:39:10;19.40;;;6.13;;
21444;SDS011;10883;51.946;20.140;2023-05-13T17:41:36;19.38;;;5.93;;
21444;SDS011;10883;51.946;20.140;2023-05-13T17:44:03;7.95;;;3.50;;
21444;SDS011;10883;51.946;20.140;2023-05-13T17:46:29;5.22;;;2.90;;
21444;SDS011;10883;51.946;20.140;2023-05-13T17:48:55;12.52;;;4.55;;
21444;SDS011;10883;51.946;20.140;2023-05-13T17:51:20;61.83;;;15.93;;
21444;SDS011;10883;51.946;20.140;2023-05-13T17:53:46;35.45;;;10.48;;
21444;SDS011;10883;51.946;20.140;2023-05-13T17:56:12;21.13;;;6.07;;
21444;SDS011;10883;51.946;20.140;2023-05-13T17:58:38;29.35;;;6.82;;
21444;SDS011;10883;51.946;20.140;2023-05-13T18:01:04;24.17;;;5.32;;
21444;SDS011;10883;51.946;20.140;2023-05-13T18:03:29;15.60;;;6.55;;
21444;SDS011;10883;51.946;20.140;2023-05-13T18:05:55;19.70;;;8.02;;
21444;SDS011;10883;51.946;20.140;2023-05-13T18:08:21;27.58;;;11.20;;
21444;SDS011;10883;51.946;20.140;2023-05-13T18:10:47;25.33;;;12.07;;
21444;SDS011;10883;51.946;20.140;2023-05-13T18:13:13;39.33;;;17.27;;
21444;SDS011;10883;51.946;20.140;2023-05-13T18:15:39;225.98;;;54.83;;
21444;SDS011;10883;51.946;20.140;2023-05-13T18:18:04;60.05;;;22.13;;
21444;SDS011;10883;51.946;20.140;2023-05-13T18:20:31;72.47;;;22.48;;
21444;SDS011;10883;51.946;20.140;2023-05-13T18:22:57;88.93;;;23.30;;
21444;SDS011;10883;51.946;20.140;2023-05-13T18:25:23;76.72;;;20.23;;
21444;SDS011;10883;51.946;20.140;2023-05-13T18:27:49;79.97;;;19.65;;
21444;SDS011;10883;51.946;20.140;2023-05-13T18:30:15;50.35;;;17.13;;
21444;SDS011;10883;51.946;20.140;2023-05-13T18:32:42;98.35;;;32.78;;
21444;SDS011;10883;51.946;20.140;2023-05-13T18:35:08;88.30;;;32.35;;
21444;SDS011;10883;51.946;20.140;2023-05-13T18:37:34;53.70;;;19.02;;
21444;SDS011;10883;51.946;20.140;2023-05-13T18:40:00;52.50;;;19.13;;
21444;SDS011;10883;51.946;20.140;2023-05-13T18:42:27;56.20;;;18.52;;
21444;SDS011;10883;51.946;20.140;2023-05-13T18:44:53;60.28;;;22.33;;
21444;SDS011;10883;51.946;20.140;2023-05-13T18:47:19;89.78;;;28.55;;
21444;SDS011;10883;51.946;20.140;2023-05-13T18:49:45;178.60;;;53.15;;
21444;SDS011;10883;51.946;20.140;2023-05-13T18:52:11;156.75;;;44.30;;
21444;SDS011;10883;51.946;20.140;2023-05-13T18:54:36;172.50;;;51.53;;
21444;SDS011;10883;51.946;20.140;2023-05-13T18:57:02;189.70;;;56.85;;
21444;SDS011;10883;51.946;20.140;2023-05-13T18:59:28;168.10;;;52.42;;
21444;SDS011;10883;51.946;20.140;2023-05-13T19:01:54;127.20;;;43.22;;
21444;SDS011;10883;51.946;20.140;2023-05-13T19:04:20;129.32;;;41.97;;
21444;SDS011;10883;51.946;20.140;2023-05-13T19:06:46;128.70;;;38.75;;
21444;SDS011;10883;51.946;20.140;2023-05-13T19:09:11;80.45;;;22.67;;
21444;SDS011;10883;51.946;20.140;2023-05-13T19:11:38;76.80;;;25.17;;
21444;SDS011;10883;51.946;20.140;2023-05-13T19:14:05;57.70;;;18.05;;
21444;SDS011;10883;51.946;20.140;2023-05-13T19:16:31;45.00;;;16.27;;
21444;SDS011;10883;51.946;20.140;2023-05-13T19:18:57;46.08;;;15.23;;
21444;SDS011;10883;51.946;20.140;2023-05-13T19:21:22;41.50;;;13.93;;
21444;SDS011;10883;51.946;20.140;2023-05-13T19:23:48;33.67;;;12.52;;
21444;SDS011;10883;51.946;20.140;2023-05-13T19:26:14;36.20;;;11.90;;
21444;SDS011;10883;51.946;20.140;2023-05-13T19:28:40;33.22;;;12.57;;
21444;SDS011;10883;51.946;20.140;2023-05-13T19:31:08;31.90;;;13.60;;
21444;SDS011;10883;51.946;20.140;2023-05-13T19:33:34;32.30;;;12.80;;
21444;SDS011;10883;51.946;20.140;2023-05-13T19:36:03;37.13;;;15.88;;
21444;SDS011;10883;51.946;20.140;2023-05-13T19:38:30;34.90;;;15.77;;
21444;SDS011;10883;51.946;20.140;2023-05-13T19:40:56;39.72;;;17.98;;
21444;SDS011;10883;51.946;20.140;2023-05-13T19:43:23;43.65;;;20.73;;
21444;SDS011;10883;51.946;20.140;2023-05-13T19:45:48;62.40;;;23.98;;
21444;SDS011;10883;51.946;20.140;2023-05-13T19:48:15;84.82;;;29.25;;
21444;SDS011;10883;51.946;20.140;2023-05-13T19:50:40;139.82;;;44.45;;
21444;SDS011;10883;51.946;20.140;2023-05-13T19:53:06;72.25;;;28.73;;
21444;SDS011;10883;51.946;20.140;2023-05-13T19:55:33;60.83;;;26.23;;
21444;SDS011;10883;51.946;20.140;2023-05-13T19:57:59;62.05;;;27.92;;
21444;SDS011;10883;51.946;20.140;2023-05-13T20:00:25;48.67;;;26.65;;
21444;SDS011;10883;51.946;20.140;2023-05-13T20:02:51;60.53;;;29.73;;
21444;SDS011;10883;51.946;20.140;2023-05-13T20:05:17;57.97;;;29.98;;
21444;SDS011;10883;51.946;20.140;2023-05-13T20:07:43;54.83;;;28.90;;
21444;SDS011;10883;51.946;20.140;2023-05-13T20:10:09;56.80;;;30.40;;
21444;SDS011;10883;51.946;20.140;2023-05-13T20:12:35;59.95;;;31.13;;
21444;SDS011;10883;51.946;20.140;2023-05-13T20:15:01;67.68;;;31.58;;
21444;SDS011;10883;51.946;20.140;2023-05-13T20:17:27;74.60;;;32.92;;
21444;SDS011;10883;51.946;20.140;2023-05-13T20:19:56;74.15;;;34.35;;
21444;SDS011;10883;51.946;20.140;2023-05-13T20:22:22;79.53;;;36.28;;
21444;SDS011;10883;51.946;20.140;2023-05-13T20:24:49;90.80;;;37.05;;
21444;SDS011;10883;51.946;20.140;2023-05-13T20:27:15;96.93;;;39.08;;
21444;SDS011;10883;51.946;20.140;2023-05-13T20:29:42;101.28;;;41.20;;
21444;SDS011;10883;51.946;20.140;2023-05-13T20:32:13;108.45;;;43.20;;
21444;SDS011;10883;51.946;20.140;2023-05-13T20:34:42;99.32;;;38.78;;
21444;SDS011;10883;51.946;20.140;2023-05-13T20:37:08;74.88;;;32.00;;
21444;SDS011;10883;51.946;20.140;2023-05-13T20:39:34;68.03;;;29.67;;
21444;SDS011;10883;51.946;20.140;2023-05-13T20:41:59;65.68;;;29.52;;
21444;SDS011;10883;51.946;20.140;2023-05-13T20:44:25;98.00;;;38.97;;
21444;SDS011;10883;51.946;20.140;2023-05-13T20:46:51;91.82;;;38.17;;
21444;SDS011;10883;51.946;20.140;2023-05-13T20:49:17;93.22;;;35.55;;
21444;SDS011;10883;51.946;20.140;2023-05-13T20:51:43;110.80;;;40.08;;
21444;SDS011;10883;51.946;20.140;2023-05-13T20:54:11;119.57;;;40.50;;
21444;SDS011;10883;51.946;20.140;2023-05-13T20:56:37;115.93;;;41.08;;
21444;SDS011;10883;51.946;20.140;2023-05-13T20:59:04;118.28;;;41.10;;
21444;SDS011;10883;51.946;20.140;2023-05-13T21:01:30;125.53;;;43.08;;
21444;SDS011;10883;51.946;20.140;2023-05-13T21:03:57;112.40;;;39.22;;
21444;SDS011;10883;51.946;20.140;2023-05-13T21:06:26;104.60;;;38.65;;